Time;durP1;ratioP1;P1;durP2;ratioP2;P2;SDS_P1;SDS_P2;PMS_P1;PMS_P2;Temp;Humidity;BMP_temperature;BMP_pressure;BME280_temperature;BME280_humidity;BME280_pressure;Samples;Min_cycle;Max_cycle;Signal;HPM_P1;HPM_P2
2022/09/06 00:01:41;;;;;;;7.35;2.60;;;20.20;99.90;;;;;;5013750;28;20017;-78
2022/09/06 00:04:07;;;;;;;6.15;2.50;;;20.20;99.90;;;;;;5014130;28;20532;-78
2022/09/06 00:06:33;;;;;;;3.25;2.50;;;20.20;99.90;;;;;;5012976;28;20026;-79
2022/09/06 00:08:59;;;;;;;5.85;2.28;;;20.20;99.90;;;;;;5013616;28;20030;-77
2022/09/06 00:11:25;;;;;;;4.13;2.47;;;20.20;99.90;;;;;;5013922;28;20022;-79
2022/09/06 00:13:51;;;;;;;4.00;2.38;;;20.20;99.90;;;;;;5013064;28;20402;-79
2022/09/06 00:16:21;;;;;;;4.13;2.50;;;20.20;99.90;;;;;;5012378;28;20053;-79
2022/09/06 00:18:47;;;;;;;6.82;2.55;;;20.20;99.90;;;;;;5013027;28;20482;-78
2022/09/06 00:21:24;;;;;;;6.00;2.20;;;20.10;99.90;;;;;;5006165;28;20022;-77
2022/09/06 00:23:50;;;;;;;3.25;2.60;;;20.10;99.90;;;;;;5010472;28;20045;-78
2022/09/06 00:26:16;;;;;;;6.10;2.70;;;20.10;99.90;;;;;;5013653;28;20030;-78
2022/09/06 00:28:42;;;;;;;3.67;2.50;;;20.10;99.90;;;;;;5013449;28;20501;-78
2022/09/06 00:31:10;;;;;;;4.78;2.72;;;20.10;99.90;;;;;;5012689;28;20036;-77
2022/09/06 00:33:36;;;;;;;4.63;2.50;;;20.00;99.90;;;;;;5012928;28;20057;-78
2022/09/06 00:36:02;;;;;;;6.13;2.50;;;19.90;99.90;;;;;;5014362;28;20046;-78
2022/09/06 00:38:28;;;;;;;4.75;2.40;;;19.90;99.90;;;;;;5013926;28;20490;-78
2022/09/06 00:40:53;;;;;;;3.83;2.70;;;19.90;99.90;;;;;;5013543;28;20026;-77
2022/09/06 00:43:19;;;;;;;5.28;2.60;;;19.90;99.90;;;;;;5012177;28;20034;-78
2022/09/06 00:45:44;;;;;;;3.88;2.42;;;19.90;99.90;;;;;;5012122;28;20399;-78
2022/09/06 00:48:10;;;;;;;4.50;2.67;;;19.90;99.90;;;;;;5012592;28;20038;-78
2022/09/06 00:50:36;;;;;;;5.82;2.50;;;19.90;99.90;;;;;;5013992;28;20030;-78
2022/09/06 00:53:02;;;;;;;2.70;2.40;;;19.90;99.90;;;;;;5013289;28;20379;-78
2022/09/06 00:55:28;;;;;;;5.18;2.55;;;19.90;99.90;;;;;;5012917;28;20066;-78
2022/09/06 00:57:55;;;;;;;5.93;2.45;;;19.90;99.90;;;;;;5012993;28;20061;-79
2022/09/06 01:00:20;;;;;;;3.65;2.40;;;19.90;99.90;;;;;;5012934;28;20128;-78
2022/09/06 01:02:47;;;;;;;6.50;2.63;;;19.80;99.90;;;;;;5012920;28;20068;-78
2022/09/06 01:05:14;;;;;;;5.60;2.53;;;19.80;99.90;;;;;;5012527;28;20026;-79
2022/09/06 01:08:18;;;;;;;6.25;2.70;;;19.80;99.90;;;;;;5011956;28;20029;-78
2022/09/06 01:10:55;;;;;;;3.33;2.40;;;19.90;99.90;;;;;;4974835;28;20364;-78
2022/09/06 01:13:54;;;;;;;6.45;2.33;;;19.90;99.90;;;;;;4991784;28;20084;-78
2022/09/06 01:16:53;;;;;;;8.68;2.90;;;20.00;99.90;;;;;;5003296;28;20263;-78
2022/09/06 01:19:43;;;;;;;5.25;2.60;;;19.90;99.90;;;;;;5012930;28;20112;-78
2022/09/06 01:22:42;;;;;;;3.05;2.50;;;20.00;99.90;;;;;;5013389;28;20499;-78
2022/09/06 01:25:29;;;;;;;4.35;2.47;;;20.10;99.90;;;;;;5013606;28;20109;-78
2022/09/06 01:28:10;;;;;;;4.38;2.60;;;20.10;99.90;;;;;;5012841;28;20075;-78
2022/09/06 01:30:42;;;;;;;7.75;2.65;;;20.20;99.90;;;;;;5013471;28;20026;-78
2022/09/06 01:33:40;;;;;;;6.82;2.55;;;20.20;99.90;;;;;;5013515;28;20037;-78
2022/09/06 01:36:10;;;;;;;5.45;2.17;;;20.20;99.90;;;;;;4990969;28;20180;-78
2022/09/06 01:38:36;;;;;;;3.55;2.10;;;20.10;99.90;;;;;;5012436;28;20030;-79
2022/09/06 01:41:01;;;;;;;5.15;2.60;;;20.20;99.90;;;;;;5012165;28;20029;-79
2022/09/06 01:43:31;;;;;;;5.30;2.33;;;20.20;99.90;;;;;;5012772;28;20528;-79
2022/09/06 01:46:14;;;;;;;3.67;2.22;;;20.30;99.90;;;;;;5013304;28;20042;-78
2022/09/06 01:48:53;;;;;;;5.80;2.25;;;20.30;99.90;;;;;;5013305;28;20025;-78
2022/09/06 01:51:46;;;;;;;2.63;2.15;;;20.40;99.90;;;;;;5012491;28;20490;-78
2022/09/06 01:54:21;;;;;;;6.13;2.95;;;20.40;99.90;;;;;;5013355;28;20072;-78
2022/09/06 01:57:10;;;;;;;4.75;2.60;;;20.30;99.90;;;;;;5016126;28;20021;-77
2022/09/06 01:59:54;;;;;;;7.60;4.22;;;20.30;99.90;;;;;;5016902;28;20426;-77
2022/09/06 02:02:34;;;;;;;3.53;2.53;;;20.30;99.90;;;;;;5016061;28;20030;-76
2022/09/06 02:05:08;;;;;;;4.45;2.70;;;20.30;99.90;;;;;;5014755;28;20041;-76
2022/09/06 02:07:35;;;;;;;5.25;2.55;;;20.20;99.90;;;;;;5016571;28;20459;-77
2022/09/06 02:10:12;;;;;;;4.95;3.38;;;20.20;99.90;;;;;;5014929;28;20030;-76
2022/09/06 02:12:42;;;;;;;5.40;2.67;;;20.10;99.90;;;;;;5016131;28;20030;-77
2022/09/06 02:15:19;;;;;;;5.07;2.55;;;20.10;99.90;;;;;;5015069;28;20463;-77
2022/09/06 02:17:55;;;;;;;4.45;2.45;;;20.10;99.90;;;;;;5014946;28;20053;-77
2022/09/06 02:20:30;;;;;;;10.50;2.63;;;20.00;99.90;;;;;;5015572;28;20116;-77
2022/09/06 02:23:00;;;;;;;3.17;2.17;;;19.90;99.90;;;;;;5016082;28;20018;-78
2022/09/06 02:25:32;;;;;;;4.88;2.60;;;20.00;99.90;;;;;;5015192;28;20530;-77
2022/09/06 02:27:58;;;;;;;7.18;2.78;;;20.00;99.90;;;;;;5014369;28;20022;-79
2022/09/06 02:30:24;;;;;;;8.75;2.72;;;19.90;99.90;;;;;;5015272;28;20045;-78
2022/09/06 02:33:06;;;;;;;6.10;2.80;;;19.80;99.90;;;;;;5014689;28;20068;-78
2022/09/06 02:35:45;;;;;;;3.88;2.42;;;19.80;99.90;;;;;;5016389;28;20030;-78
2022/09/06 02:38:11;;;;;;;4.60;2.55;;;19.80;99.90;;;;;;5016604;28;20029;-78
2022/09/06 02:40:38;;;;;;;4.53;2.60;;;19.80;99.90;;;;;;5014842;28;20022;-79
2022/09/06 02:43:03;;;;;;;4.40;3.00;;;19.80;99.90;;;;;;5016000;28;20026;-79
2022/09/06 02:45:29;;;;;;;4.97;2.78;;;19.90;99.90;;;;;;5014564;28;20049;-78
2022/09/06 02:47:55;;;;;;;6.20;2.88;;;19.80;99.90;;;;;;5015764;28;20034;-79
2022/09/06 02:50:20;;;;;;;4.22;2.47;;;19.80;99.90;;;;;;5016188;28;20116;-79
2022/09/06 02:52:46;;;;;;;6.43;2.80;;;19.80;99.90;;;;;;5014084;28;20360;-77
2022/09/06 02:55:11;;;;;;;3.95;2.63;;;19.80;99.90;;;;;;5016123;28;20033;-79
2022/09/06 02:57:37;;;;;;;3.92;2.67;;;19.80;99.90;;;;;;5015889;28;20450;-79
2022/09/06 03:00:04;;;;;;;4.95;2.60;;;19.80;99.90;;;;;;5014609;28;20053;-78
2022/09/06 03:02:29;;;;;;;3.03;2.42;;;19.80;99.90;;;;;;5014692;28;20423;-78
2022/09/06 03:04:55;;;;;;;4.20;3.25;;;19.80;99.90;;;;;;5013819;28;20030;-78
2022/09/06 03:07:20;;;;;;;4.22;3.17;;;19.70;99.90;;;;;;5014189;28;20026;-78
2022/09/06 03:09:46;;;;;;;6.80;2.80;;;19.70;99.90;;;;;;5013932;28;20494;-77
2022/09/06 03:12:11;;;;;;;6.50;3.13;;;19.70;99.90;;;;;;5014346;28;20022;-78
2022/09/06 03:14:40;;;;;;;5.00;3.17;;;19.60;99.90;;;;;;5014433;28;20026;-78
2022/09/06 03:17:05;;;;;;;6.47;2.67;;;19.60;99.90;;;;;;5014966;28;20050;-78
2022/09/06 03:19:31;;;;;;;4.85;2.80;;;19.60;99.90;;;;;;5014601;28;20026;-78
2022/09/06 03:21:56;;;;;;;6.90;2.45;;;19.70;99.90;;;;;;5014919;28;20383;-78
2022/09/06 03:24:22;;;;;;;5.53;3.00;;;19.60;99.90;;;;;;5014244;28;20041;-78
2022/09/06 03:26:48;;;;;;;3.95;2.95;;;19.60;99.90;;;;;;5013877;28;20029;-78
2022/09/06 03:29:13;;;;;;;5.50;3.22;;;19.50;99.90;;;;;;5015179;28;20118;-78
2022/09/06 03:31:39;;;;;;;6.53;3.22;;;19.40;99.90;;;;;;5015471;28;20061;-79
2022/09/06 03:34:04;;;;;;;5.28;3.30;;;19.30;99.90;;;;;;5013658;28;20385;-79
2022/09/06 03:36:30;;;;;;;3.72;3.22;;;19.30;99.90;;;;;;5015655;28;20034;-77
2022/09/06 03:38:55;;;;;;;6.72;3.22;;;19.20;99.90;;;;;;5014770;28;20105;-78
2022/09/06 03:41:21;;;;;;;6.25;2.83;;;19.20;99.90;;;;;;5014621;28;20029;-78
2022/09/06 03:43:47;;;;;;;5.13;3.20;;;19.30;99.90;;;;;;5013999;28;20117;-78
2022/09/06 03:46:12;;;;;;;6.95;3.25;;;19.30;99.90;;;;;;5014929;28;20033;-79
2022/09/06 03:48:38;;;;;;;5.90;3.17;;;19.20;99.90;;;;;;5013975;28;20028;-79
2022/09/06 03:51:04;;;;;;;5.47;3.05;;;19.20;99.90;;;;;;5013497;28;20030;-78
2022/09/06 03:53:29;;;;;;;5.13;3.45;;;19.20;99.90;;;;;;5013665;28;20030;-79
2022/09/06 03:55:57;;;;;;;4.05;3.08;;;19.20;99.90;;;;;;5013572;28;20064;-79
2022/09/06 03:58:23;;;;;;;4.40;3.05;;;19.20;99.90;;;;;;5013810;28;20022;-78
2022/09/06 04:00:59;;;;;;;3.63;3.03;;;19.20;99.90;;;;;;5013741;28;20479;-78
2022/09/06 04:03:24;;;;;;;7.25;3.42;;;19.20;99.90;;;;;;5015013;28;20153;-79
2022/09/06 04:05:50;;;;;;;4.30;3.38;;;19.20;99.90;;;;;;5013304;28;20117;-78
2022/09/06 04:08:15;;;;;;;4.65;2.97;;;19.20;99.90;;;;;;5014733;28;20379;-78
2022/09/06 04:10:41;;;;;;;5.05;3.20;;;19.20;99.90;;;;;;5014991;28;20026;-79
2022/09/06 04:13:07;;;;;;;7.82;3.75;;;19.10;99.90;;;;;;5013095;28;20422;-78
2022/09/06 04:15:32;;;;;;;6.50;3.20;;;19.10;99.90;;;;;;5013345;28;20077;-79
2022/09/06 04:17:58;;;;;;;3.90;2.90;;;19.10;99.90;;;;;;5011341;28;20049;-78
2022/09/06 04:20:24;;;;;;;9.30;3.33;;;19.10;99.90;;;;;;5014750;28;20063;-78
2022/09/06 04:22:49;;;;;;;4.65;3.20;;;19.10;99.90;;;;;;5013375;28;20022;-78
2022/09/06 04:25:15;;;;;;;6.55;2.97;;;19.00;99.90;;;;;;5013229;28;20030;-79
2022/09/06 04:27:41;;;;;;;6.53;3.70;;;19.10;99.90;;;;;;5014324;28;20061;-78
2022/09/06 04:30:07;;;;;;;5.03;3.42;;;19.10;99.90;;;;;;5013975;28;20022;-79
2022/09/06 04:32:32;;;;;;;4.68;2.80;;;19.10;99.90;;;;;;5013271;28;20549;-79
2022/09/06 04:34:58;;;;;;;4.55;3.47;;;19.10;99.90;;;;;;5013115;28;20029;-78
2022/09/06 04:37:24;;;;;;;6.80;3.85;;;19.00;99.90;;;;;;5013289;28;20022;-79
2022/09/06 04:39:49;;;;;;;7.43;3.83;;;18.90;99.90;;;;;;5013405;28;20547;-79
2022/09/06 04:42:15;;;;;;;6.90;4.10;;;18.90;99.90;;;;;;5013818;28;20022;-78
2022/09/06 04:44:41;;;;;;;5.65;3.95;;;18.90;99.90;;;;;;5014167;28;20042;-79
2022/09/06 04:47:13;;;;;;;6.25;4.03;;;18.90;99.90;;;;;;5013305;28;20099;-79
2022/09/06 04:49:40;;;;;;;7.55;4.25;;;18.80;99.90;;;;;;5013975;28;20228;-78
2022/09/06 04:52:06;;;;;;;8.43;3.83;;;18.70;99.90;;;;;;5013408;28;20487;-78
2022/09/06 04:54:31;;;;;;;7.53;4.45;;;18.70;99.90;;;;;;5012642;28;20120;-78
2022/09/06 04:56:57;;;;;;;6.40;3.83;;;18.70;99.90;;;;;;5013113;28;20065;-78
2022/09/06 04:59:22;;;;;;;7.50;3.75;;;18.70;99.90;;;;;;5013669;28;20030;-78
2022/09/06 05:01:48;;;;;;;4.72;3.50;;;18.80;99.90;;;;;;5012411;28;20478;-78
2022/09/06 05:04:14;;;;;;;5.65;3.75;;;18.80;99.90;;;;;;5012949;28;20091;-78
2022/09/06 05:06:40;;;;;;;7.50;3.53;;;18.80;99.90;;;;;;5012819;28;20026;-78
2022/09/06 05:09:06;;;;;;;5.32;3.40;;;18.80;99.90;;;;;;5012262;28;20038;-78
2022/09/06 05:11:33;;;;;;;4.13;3.45;;;18.80;99.90;;;;;;5012852;28;20041;-78
2022/09/06 05:13:58;;;;;;;7.20;3.40;;;18.90;99.90;;;;;;5012874;28;20375;-77
2022/09/06 05:16:24;;;;;;;5.28;3.25;;;18.90;99.90;;;;;;5013179;28;20053;-77
2022/09/06 05:18:49;;;;;;;6.40;3.33;;;18.90;99.90;;;;;;5011737;28;20022;-78
2022/09/06 05:21:15;;;;;;;5.50;3.22;;;18.80;99.90;;;;;;5013019;28;20033;-77
2022/09/06 05:23:41;;;;;;;8.48;3.40;;;18.80;99.90;;;;;;5011843;28;20026;-76
2022/09/06 05:26:07;;;;;;;8.70;3.42;;;18.90;99.90;;;;;;5012713;28;20379;-78
2022/09/06 05:28:33;;;;;;;5.32;3.47;;;18.90;99.90;;;;;;5012420;28;20022;-78
2022/09/06 05:31:09;;;;;;;3.58;3.17;;;19.00;99.90;;;;;;5017149;28;20080;-78
2022/09/06 05:33:36;;;;;;;4.72;3.33;;;18.90;99.90;;;;;;5016970;28;20026;-78
2022/09/06 05:36:03;;;;;;;7.10;3.70;;;18.90;99.90;;;;;;5016141;28;20034;-79
2022/09/06 05:38:29;;;;;;;4.10;3.20;;;18.90;99.90;;;;;;5016548;28;20026;-79
2022/09/06 05:40:55;;;;;;;6.72;3.25;;;19.00;99.90;;;;;;5015829;28;20048;-78
2022/09/06 05:43:20;;;;;;;5.20;3.55;;;18.90;99.90;;;;;;5016491;28;20458;-79
2022/09/06 05:45:46;;;;;;;7.00;3.75;;;19.00;99.90;;;;;;5016326;28;20092;-78
2022/09/06 05:48:12;;;;;;;5.97;3.80;;;19.00;99.90;;;;;;5016589;28;20030;-78
2022/09/06 05:50:37;;;;;;;5.47;3.67;;;19.00;99.90;;;;;;5016064;28;20029;-78
2022/09/06 05:53:03;;;;;;;5.45;3.65;;;19.00;99.90;;;;;;5015525;28;20032;-78
2022/09/06 05:55:28;;;;;;;5.82;3.83;;;19.00;99.90;;;;;;5015708;28;20022;-78
2022/09/06 05:57:54;;;;;;;5.97;4.00;;;19.10;99.90;;;;;;5015790;28;20030;-78
2022/09/06 06:00:20;;;;;;;5.13;3.63;;;19.10;99.90;;;;;;5016260;28;20045;-79
2022/09/06 06:02:47;;;;;;;5.60;3.55;;;19.20;99.90;;;;;;5016494;28;20044;-79
2022/09/06 06:05:13;;;;;;;9.32;4.15;;;19.20;99.90;;;;;;5016189;28;20044;-79
2022/09/06 06:07:39;;;;;;;6.13;3.63;;;19.20;99.90;;;;;;5015643;28;20037;-79
2022/09/06 06:10:05;;;;;;;7.00;3.72;;;19.20;99.90;;;;;;5014830;28;20441;-79
2022/09/06 06:12:30;;;;;;;4.03;3.50;;;19.20;99.90;;;;;;5015380;28;20033;-79
2022/09/06 06:14:56;;;;;;;6.53;3.80;;;19.30;99.90;;;;;;5014856;28;20459;-78
2022/09/06 06:17:22;;;;;;;4.53;3.42;;;19.30;99.90;;;;;;5016431;28;20059;-79
2022/09/06 06:19:48;;;;;;;6.05;3.53;;;19.30;99.90;;;;;;5015190;28;20482;-79
2022/09/06 06:22:13;;;;;;;6.65;3.83;;;19.40;99.90;;;;;;5014815;28;20026;-78
2022/09/06 06:24:39;;;;;;;8.82;3.97;;;19.40;99.90;;;;;;5014979;28;20091;-78
2022/09/06 06:27:04;;;;;;;5.55;3.88;;;19.40;99.90;;;;;;5015653;28;20478;-78
2022/09/06 06:29:30;;;;;;;7.07;3.85;;;19.40;99.90;;;;;;5016030;28;20034;-79
2022/09/06 06:31:56;;;;;;;5.68;4.05;;;19.40;99.90;;;;;;5015027;28;20026;-78
2022/09/06 06:34:21;;;;;;;6.95;4.05;;;19.50;99.90;;;;;;5014448;28;20041;-78
2022/09/06 06:36:47;;;;;;;5.70;3.97;;;19.60;99.90;;;;;;5014525;28;20037;-77
2022/09/06 06:39:13;;;;;;;5.30;3.67;;;19.60;99.90;;;;;;5015485;28;20026;-78
2022/09/06 06:41:38;;;;;;;6.80;4.13;;;19.60;99.90;;;;;;5013851;28;20463;-78
2022/09/06 06:44:05;;;;;;;6.43;4.30;;;19.70;99.90;;;;;;5015063;28;20061;-78
2022/09/06 06:46:36;;;;;;;6.68;4.32;;;19.70;99.90;;;;;;5014701;28;20044;-78
2022/09/06 06:49:02;;;;;;;6.38;4.28;;;19.80;99.90;;;;;;5015214;28;20030;-77
2022/09/06 06:51:31;;;;;;;13.38;5.28;;;19.80;99.90;;;;;;5015017;28;20113;-77
2022/09/06 06:53:57;;;;;;;6.95;4.45;;;19.80;99.90;;;;;;5014575;28;20029;-78
2022/09/06 06:56:28;;;;;;;8.45;4.75;;;19.80;99.90;;;;;;5013659;28;20037;-77
2022/09/06 06:58:56;;;;;;;6.03;4.35;;;19.80;99.90;;;;;;5015254;28;20072;-76
2022/09/06 07:01:23;;;;;;;9.43;5.40;;;19.90;99.90;;;;;;5013600;28;20049;-76
2022/09/06 07:03:49;;;;;;;8.38;5.18;;;20.00;99.90;;;;;;5013948;28;20049;-76
2022/09/06 07:06:16;;;;;;;10.95;5.38;;;20.00;99.90;;;;;;5014750;28;20460;-77
2022/09/06 07:08:42;;;;;;;11.40;5.50;;;20.00;99.90;;;;;;5014289;28;20072;-77
2022/09/06 07:11:10;;;;;;;12.30;5.30;;;20.00;99.90;;;;;;5014419;28;20033;-78
2022/09/06 07:13:36;;;;;;;12.52;6.20;;;20.10;99.90;;;;;;4994623;28;20023;-78
2022/09/06 07:16:12;;;;;;;10.60;5.47;;;20.20;99.90;;;;;;5008693;28;20050;-78
2022/09/06 07:18:41;;;;;;;7.80;4.78;;;20.30;99.90;;;;;;5014735;28;20037;-78
2022/09/06 07:21:26;;;;;;;6.63;4.20;;;20.40;99.90;;;;;;5015036;28;20183;-78
2022/09/06 07:23:53;;;;;;;6.38;3.70;;;20.60;99.90;;;;;;5014394;28;20033;-76
2022/09/06 07:26:21;;;;;;;7.97;3.30;;;20.60;99.90;;;;;;5013223;28;20049;-76
2022/09/06 07:28:46;;;;;;;7.68;3.35;;;20.80;99.90;;;;;;5013956;28;20049;-78
2022/09/06 07:31:12;;;;;;;6.18;2.85;;;20.80;99.90;;;;;;5013513;28;20451;-78
2022/09/06 07:33:39;;;;;;;5.47;3.60;;;20.90;99.90;;;;;;5014411;28;20022;-79
2022/09/06 07:36:07;;;;;;;6.00;3.30;;;20.90;99.90;;;;;;5014636;28;20044;-77
2022/09/06 07:38:34;;;;;;;5.53;3.00;;;20.90;99.90;;;;;;5013627;28;20116;-76
2022/09/06 07:41:02;;;;;;;5.70;3.40;;;20.90;99.90;;;;;;5012905;28;20022;-75
2022/09/06 07:43:28;;;;;;;6.45;3.35;;;20.90;99.90;;;;;;5013240;28;20459;-75
2022/09/06 07:46:00;;;;;;;4.88;3.65;;;20.90;99.90;;;;;;5014674;28;20038;-76
2022/09/06 07:48:31;;;;;;;9.45;4.40;;;20.90;99.90;;;;;;5012709;28;20033;-76
2022/09/06 07:51:08;;;;;;;5.60;3.80;;;20.90;99.90;;;;;;5012998;28;20022;-77
2022/09/06 07:53:35;;;;;;;5.38;3.88;;;20.80;99.90;;;;;;5013417;28;20532;-77
2022/09/06 07:56:05;;;;;;;9.20;3.47;;;20.80;99.90;;;;;;5013107;28;20117;-77
2022/09/06 07:58:31;;;;;;;7.53;3.40;;;20.80;99.90;;;;;;5014362;28;20053;-76
2022/09/06 08:01:16;;;;;;;6.03;3.65;;;20.90;99.90;;;;;;5012064;28;20029;-76
2022/09/06 08:03:42;;;;;;;7.70;3.85;;;20.90;99.90;;;;;;5013368;28;20084;-79
2022/09/06 08:06:08;;;;;;;6.72;3.70;;;20.90;99.90;;;;;;5011332;28;20034;-79
2022/09/06 08:08:34;;;;;;;5.55;3.47;;;20.90;99.90;;;;;;5013261;28;20485;-79
2022/09/06 08:11:00;;;;;;;4.93;3.30;;;20.90;99.90;;;;;;5012389;28;20026;-79
2022/09/06 08:13:26;;;;;;;6.97;3.38;;;20.90;99.90;;;;;;5013800;28;20092;-79
2022/09/06 08:16:05;;;;;;;7.78;3.70;;;20.90;99.90;;;;;;5011952;28;20104;-79
2022/09/06 08:18:31;;;;;;;5.20;3.65;;;21.00;99.90;;;;;;5014206;28;20037;-78
2022/09/06 08:21:14;;;;;;;7.13;3.33;;;21.00;99.90;;;;;;5013581;28;20032;-78
2022/09/06 08:23:46;;;;;;;8.27;3.22;;;21.00;99.90;;;;;;4994500;28;20022;-79
2022/09/06 08:26:11;;;;;;;7.75;3.85;;;21.10;99.90;;;;;;4995090;28;20038;-78
2022/09/06 08:28:37;;;;;;;6.55;2.92;;;21.10;99.90;;;;;;5012218;28;20025;-78
2022/09/06 08:31:16;;;;;;;8.43;3.55;;;21.10;99.90;;;;;;5012768;28;20037;-78
2022/09/06 08:33:43;;;;;;;12.23;3.85;;;21.20;99.90;;;;;;5013779;28;20018;-78
2022/09/06 08:36:10;;;;;;;7.18;3.90;;;21.30;99.90;;;;;;5013357;28;20449;-77
2022/09/06 08:38:36;;;;;;;6.65;3.53;;;21.30;99.90;;;;;;5012413;28;20463;-78
2022/09/06 08:41:18;;;;;;;6.32;3.20;;;21.40;99.90;;;;;;5013071;28;20418;-77
2022/09/06 08:44:01;;;;;;;3.97;3.13;;;21.30;99.90;;;;;;5013546;28;20025;-78
2022/09/06 08:46:38;;;;;;;4.43;3.10;;;21.40;99.90;;;;;;5011431;28;20050;-77
2022/09/06 08:49:05;;;;;;;6.95;3.80;;;21.40;99.90;;;;;;5012352;28;20061;-78
2022/09/06 08:51:38;;;;;;;6.55;3.55;;;21.40;99.90;;;;;;5011376;28;20097;-78
2022/09/06 08:54:39;;;;;;;11.20;3.50;;;21.50;99.90;;;;;;5013650;28;20021;-78
2022/09/06 08:57:07;;;;;;;7.28;3.35;;;21.60;99.90;;;;;;4980172;28;20038;-78
2022/09/06 08:59:41;;;;;;;5.40;3.30;;;21.60;99.90;;;;;;5011866;28;20534;-77
2022/09/06 09:02:20;;;;;;;4.60;3.40;;;21.60;99.90;;;;;;5012212;28;20080;-78
2022/09/06 09:04:54;;;;;;;5.57;3.25;;;21.80;99.90;;;;;;5011900;28;20034;-79
2022/09/06 09:07:45;;;;;;;7.55;3.70;;;21.80;99.90;;;;;;5011016;28;20030;-78
2022/09/06 09:10:43;;;;;;;6.95;4.35;;;21.80;99.90;;;;;;5006361;28;20034;-77
2022/09/06 09:13:27;;;;;;;8.50;3.47;;;21.90;99.90;;;;;;5010225;28;20489;-78
2022/09/06 09:15:53;;;;;;;4.47;3.08;;;22.10;99.90;;;;;;5011635;28;20046;-78
2022/09/06 09:18:24;;;;;;;5.93;2.95;;;22.20;99.90;;;;;;5010954;28;20156;-76
2022/09/06 09:20:50;;;;;;;5.75;3.03;;;22.30;99.90;;;;;;5013019;28;20033;-78
2022/09/06 09:23:16;;;;;;;5.93;3.22;;;22.30;99.90;;;;;;5012956;28;20038;-79
2022/09/06 09:25:42;;;;;;;4.97;2.95;;;22.40;99.90;;;;;;5011994;28;20120;-80
2022/09/06 09:28:16;;;;;;;5.45;3.10;;;22.40;99.90;;;;;;5004176;28;20097;-77
2022/09/06 09:30:53;;;;;;;4.05;2.92;;;22.50;99.90;;;;;;5013162;28;20076;-78
2022/09/06 09:33:38;;;;;;;3.95;2.80;;;22.50;99.90;;;;;;5005694;28;20040;-78
2022/09/06 09:36:13;;;;;;;8.77;2.95;;;22.50;99.90;;;;;;5011613;28;20032;-79
2022/09/06 09:38:44;;;;;;;5.95;2.95;;;22.60;99.90;;;;;;5012819;28;20058;-77
2022/09/06 09:41:32;;;;;;;5.57;2.95;;;22.70;99.90;;;;;;5012322;28;20026;-82
2022/09/06 09:44:18;;;;;;;3.88;2.83;;;22.80;99.90;;;;;;5013995;28;20195;-80
2022/09/06 09:46:44;;;;;;;4.45;2.72;;;22.80;99.90;;;;;;5013838;28;20062;-85
2022/09/06 09:49:23;;;;;;;4.68;2.35;;;22.90;99.90;;;;;;5014882;28;20529;-80
2022/09/06 09:52:10;;;;;;;4.45;2.78;;;23.00;99.90;;;;;;5007135;28;20023;-78
2022/09/06 09:54:41;;;;;;;7.72;3.00;;;23.10;99.90;;;;;;4999599;28;20116;-79
2022/09/06 09:57:17;;;;;;;6.38;2.83;;;23.20;99.90;;;;;;5012863;28;20033;-78
2022/09/06 09:59:53;;;;;;;6.00;2.78;;;23.30;99.90;;;;;;5012247;28;20065;-79
2022/09/06 10:02:31;;;;;;;7.32;2.95;;;23.50;99.90;;;;;;5012052;28;20044;-79
2022/09/06 10:05:02;;;;;;;9.57;2.92;;;23.60;99.90;;;;;;5011106;28;20030;-80
2022/09/06 10:07:30;;;;;;;7.18;3.15;;;23.70;99.90;;;;;;5012065;28;20153;-81
2022/09/06 10:10:00;;;;;;;7.72;3.42;;;23.80;99.90;;;;;;5012481;28;20029;-80
2022/09/06 10:12:40;;;;;;;4.43;2.75;;;23.80;99.90;;;;;;5009231;28;20033;-81
2022/09/06 10:15:08;;;;;;;5.97;2.80;;;23.80;99.90;;;;;;5010616;28;20471;-80
2022/09/06 10:17:47;;;;;;;7.07;3.40;;;23.80;99.90;;;;;;5007972;28;20057;-78
2022/09/06 10:20:15;;;;;;;4.75;2.92;;;23.80;99.90;;;;;;5015179;28;20025;-79
2022/09/06 10:23:05;;;;;;;9.48;3.17;;;23.70;99.90;;;;;;5013265;28;20035;-78
2022/09/06 10:25:44;;;;;;;5.90;3.15;;;23.80;99.90;;;;;;5017009;28;20049;-83
2022/09/06 10:28:23;;;;;;;6.05;3.45;;;23.80;99.90;;;;;;5002327;28;20519;-78
2022/09/06 10:31:08;;;;;;;8.90;3.47;;;23.80;99.90;;;;;;5018903;28;20022;-79
2022/09/06 10:33:52;;;;;;;7.32;3.63;;;23.80;99.90;;;;;;5010177;28;20029;-81
2022/09/06 10:36:43;;;;;;;8.77;3.20;;;23.90;99.90;;;;;;5009379;28;20034;-80
2022/09/06 10:39:41;;;;;;;9.68;2.83;;;24.00;99.90;;;;;;5007457;28;20121;-81
2022/09/06 10:42:19;;;;;;;5.85;2.53;;;24.00;99.90;;;;;;5012008;28;20025;-81
2022/09/06 10:44:54;;;;;;;7.38;2.88;;;24.10;99.90;;;;;;5001241;28;20038;-80
2022/09/06 10:47:28;;;;;;;9.10;3.17;;;24.10;99.90;;;;;;5007961;28;20026;-85
2022/09/06 10:49:57;;;;;;;7.88;2.88;;;24.10;99.90;;;;;;5015835;28;20034;-80
2022/09/06 10:52:36;;;;;;;8.15;2.90;;;24.20;99.90;;;;;;5010986;28;20026;-80
2022/09/06 10:55:04;;;;;;;8.55;3.45;;;24.30;99.90;;;;;;5006282;28;20037;-78
2022/09/06 10:57:50;;;;;;;6.70;3.83;;;24.30;99.90;;;;;;5007359;28;20026;-83
2022/09/06 11:00:17;;;;;;;4.60;3.05;;;24.30;99.90;;;;;;5013212;28;20049;-79
2022/09/06 11:02:59;;;;;;;6.32;2.65;;;24.40;99.90;;;;;;5014259;28;20018;-78
2022/09/06 11:05:31;;;;;;;8.95;3.40;;;24.50;99.90;;;;;;5010692;28;20038;-78
2022/09/06 11:08:04;;;;;;;5.65;2.85;;;24.50;99.90;;;;;;5002165;28;20030;-78
2022/09/06 11:10:36;;;;;;;7.95;2.78;;;24.50;99.90;;;;;;5007259;28;20033;-78
2022/09/06 11:13:09;;;;;;;8.10;3.00;;;24.70;99.90;;;;;;5004297;28;20414;-78
2022/09/06 11:16:04;;;;;;;8.27;2.30;;;24.70;99.90;;;;;;4999763;28;20046;-78
2022/09/06 11:18:44;;;;;;;9.48;2.70;;;24.80;99.90;;;;;;4999464;28;20026;-77
2022/09/06 11:21:34;;;;;;;6.20;2.83;;;24.90;99.90;;;;;;5007424;28;20032;-78
2022/09/06 11:24:24;;;;;;;4.55;2.42;;;24.90;99.90;;;;;;5012346;28;20081;-77
2022/09/06 11:27:09;;;;;;;6.63;2.55;;;25.00;99.90;;;;;;5001698;28;20076;-78
2022/09/06 11:29:40;;;;;;;5.10;2.00;;;25.10;99.90;;;;;;5000310;28;20101;-78
2022/09/06 11:32:26;;;;;;;6.53;1.92;;;25.20;99.90;;;;;;5011346;28;20030;-78
2022/09/06 11:34:56;;;;;;;3.58;2.08;;;25.30;99.90;;;;;;4995858;28;20112;-78
2022/09/06 11:37:31;;;;;;;7.43;2.38;;;25.30;99.90;;;;;;5005776;28;20093;-79
2022/09/06 11:40:18;;;;;;;6.50;2.25;;;25.40;99.90;;;;;;5014174;28;20034;-79
2022/09/06 11:42:43;;;;;;;5.95;1.70;;;25.40;99.90;;;;;;5000571;28;20080;-77
2022/09/06 11:45:20;;;;;;;5.82;1.70;;;25.40;99.90;;;;;;5002129;28;20042;-78
2022/09/06 11:47:48;;;;;;;6.13;1.83;;;25.40;99.60;;;;;;4997612;28;20042;-80
2022/09/06 11:50:19;;;;;;;4.85;1.80;;;25.50;99.60;;;;;;5010943;28;20018;-82
2022/09/06 11:52:48;;;;;;;;;;;25.60;99.00;;;;;;5008905;28;20026;-79
2022/09/06 11:55:17;;;;;;;5.93;1.92;;;25.70;98.60;;;;;;4997884;28;19971;-78
2022/09/06 11:57:44;;;;;;;5.22;1.48;;;25.70;98.30;;;;;;5007837;28;20526;-79
2022/09/06 12:00:19;;;;;;;6.28;2.17;;;25.70;98.20;;;;;;4999050;28;20040;-79
2022/09/06 12:02:44;;;;;;;7.50;2.08;;;25.90;97.90;;;;;;5011725;28;20026;-78
2022/09/06 12:05:17;;;;;;;5.70;2.15;;;26.10;98.10;;;;;;5012842;28;20525;-79
2022/09/06 12:08:22;;;;;;;5.55;2.72;;;26.10;98.30;;;;;;5002916;28;20080;-79
2022/09/06 12:10:58;;;;;;;8.75;2.00;;;26.20;98.00;;;;;;5012992;28;20561;-79
2022/09/06 12:13:38;;;;;;;7.38;2.25;;;26.30;97.90;;;;;;5006225;28;20054;-80
2022/09/06 12:16:05;;;;;;;4.90;2.00;;;26.50;97.40;;;;;;5012022;28;20077;-81
2022/09/06 12:18:45;;;;;;;10.43;1.90;;;26.70;97.40;;;;;;5009005;28;20031;-81
2022/09/06 12:21:35;;;;;;;4.40;1.60;;;26.90;96.10;;;;;;5009676;28;20037;-81
2022/09/06 12:24:02;;;;;;;6.18;1.45;;;27.00;96.00;;;;;;5009848;28;20263;-81
2022/09/06 12:26:46;;;;;;;6.65;1.67;;;27.20;95.60;;;;;;5012540;28;20022;-82
2022/09/06 12:29:12;;;;;;;5.10;1.48;;;27.30;94.70;;;;;;5001733;28;20033;-79
2022/09/06 12:32:00;;;;;;;4.53;1.80;;;27.40;94.20;;;;;;5009411;28;20037;-81
2022/09/06 12:34:30;;;;;;;3.47;1.40;;;27.60;93.70;;;;;;5008151;28;20027;-82
2022/09/06 12:37:06;;;;;;;4.57;1.63;;;27.40;93.40;;;;;;5003634;28;20026;-82
2022/09/06 12:39:32;;;;;;;3.50;1.60;;;27.40;93.20;;;;;;5011785;28;20033;-81
2022/09/06 12:42:06;;;;;;;4.45;1.60;;;27.40;93.40;;;;;;5004023;28;20025;-81
2022/09/06 12:44:35;;;;;;;6.88;1.70;;;27.50;93.10;;;;;;5011294;28;20073;-83
2022/09/06 12:47:08;;;;;;;4.10;1.55;;;27.60;93.00;;;;;;5011701;28;20026;-80
2022/09/06 12:49:34;;;;;;;4.68;1.67;;;27.80;92.70;;;;;;5013065;28;20112;-79
2022/09/06 12:52:12;;;;;;;4.95;1.45;;;28.00;92.40;;;;;;5005605;28;20083;-80
2022/09/06 12:54:45;;;;;;;5.53;2.03;;;28.20;92.00;;;;;;5008611;28;20034;-81
2022/09/06 12:57:25;;;;;;;4.05;1.80;;;28.40;92.10;;;;;;5004023;28;20031;-80
2022/09/06 12:59:56;;;;;;;6.03;1.50;;;28.70;91.30;;;;;;4996138;28;20080;-82
2022/09/06 13:02:36;;;;;;;5.22;1.40;;;28.90;91.30;;;;;;5008738;28;20113;-81
2022/09/06 13:05:10;;;;;;;2.45;1.40;;;29.30;90.50;;;;;;5009441;28;20498;-81
2022/09/06 13:07:41;;;;;;;5.72;1.70;;;29.70;89.70;;;;;;5007260;28;20156;-79
2022/09/06 13:10:07;;;;;;;4.53;1.60;;;30.10;88.50;;;;;;5003365;28;20033;-80